sensor_id;sensor_type;location;lat;lon;timestamp;temperature;humidity
78463;SHT31;67756;51.982;5.648;2023-05-07T00:00:12;20.6;59.3
78463;SHT31;67756;51.982;5.648;2023-05-07T00:02:44;20.6;59.8
78463;SHT31;67756;51.982;5.648;2023-05-07T00:05:17;20.5;59.8
78463;SHT31;67756;51.982;5.648;2023-05-07T00:07:47;20.5;59.7
78463;SHT31;67756;51.982;5.648;2023-05-07T00:10:29;20.5;60.2
78463;SHT31;67756;51.982;5.648;2023-05-07T00:12:58;20.4;60.0
78463;SHT31;67756;51.982;5.648;2023-05-07T00:15:26;20.4;60.0
78463;SHT31;67756;51.982;5.648;2023-05-07T00:17:55;20.3;60.5
78463;SHT31;67756;51.982;5.648;2023-05-07T00:20:26;20.2;60.5
78463;SHT31;67756;51.982;5.648;2023-05-07T00:22:54;20.1;60.7
78463;SHT31;67756;51.982;5.648;2023-05-07T00:25:23;20.0;61.4
78463;SHT31;67756;51.982;5.648;2023-05-07T00:27:51;19.9;61.7
78463;SHT31;67756;51.982;5.648;2023-05-07T00:30:20;19.8;61.8
78463;SHT31;67756;51.982;5.648;2023-05-07T00:32:48;19.8;62.0
78463;SHT31;67756;51.982;5.648;2023-05-07T00:35:17;19.7;62.1
78463;SHT31;67756;51.982;5.648;2023-05-07T00:37:46;19.6;62.2
78463;SHT31;67756;51.982;5.648;2023-05-07T00:40:15;19.6;62.0
78463;SHT31;67756;51.982;5.648;2023-05-07T00:42:43;19.5;62.5
78463;SHT31;67756;51.982;5.648;2023-05-07T00:45:15;19.5;62.7
78463;SHT31;67756;51.982;5.648;2023-05-07T00:47:46;19.4;62.8
78463;SHT31;67756;51.982;5.648;2023-05-07T00:50:14;19.4;63.0
78463;SHT31;67756;51.982;5.648;2023-05-07T00:52:43;19.3;63.2
78463;SHT31;67756;51.982;5.648;2023-05-07T00:55:11;19.3;63.4
78463;SHT31;67756;51.982;5.648;2023-05-07T00:57:43;19.3;63.6
78463;SHT31;67756;51.982;5.648;2023-05-07T01:00:13;19.2;63.4
78463;SHT31;67756;51.982;5.648;2023-05-07T01:02:42;19.2;63.7
78463;SHT31;67756;51.982;5.648;2023-05-07T01:05:15;19.2;63.9
78463;SHT31;67756;51.982;5.648;2023-05-07T01:07:46;19.2;64.2
78463;SHT31;67756;51.982;5.648;2023-05-07T01:10:15;19.2;64.0
78463;SHT31;67756;51.982;5.648;2023-05-07T01:12:45;19.1;64.1
78463;SHT31;67756;51.982;5.648;2023-05-07T01:15:15;19.1;64.5
78463;SHT31;67756;51.982;5.648;2023-05-07T01:17:45;19.1;64.2
78463;SHT31;67756;51.982;5.648;2023-05-07T01:20:14;19.1;63.8
78463;SHT31;67756;51.982;5.648;2023-05-07T01:22:43;19.1;63.8
78463;SHT31;67756;51.982;5.648;2023-05-07T01:25:12;19.0;64.4
78463;SHT31;67756;51.982;5.648;2023-05-07T01:27:44;19.0;64.2
78463;SHT31;67756;51.982;5.648;2023-05-07T01:30:13;19.0;64.3
78463;SHT31;67756;51.982;5.648;2023-05-07T01:32:45;19.0;65.1
78463;SHT31;67756;51.982;5.648;2023-05-07T01:35:19;19.0;65.2
78463;SHT31;67756;51.982;5.648;2023-05-07T01:37:49;19.0;64.7
78463;SHT31;67756;51.982;5.648;2023-05-07T01:40:20;19.0;65.0
78463;SHT31;67756;51.982;5.648;2023-05-07T01:42:50;19.0;64.7
78463;SHT31;67756;51.982;5.648;2023-05-07T01:45:19;19.1;64.6
78463;SHT31;67756;51.982;5.648;2023-05-07T01:47:48;19.1;64.5
78463;SHT31;67756;51.982;5.648;2023-05-07T01:50:19;19.2;64.3
78463;SHT31;67756;51.982;5.648;2023-05-07T01:52:50;19.2;64.2
78463;SHT31;67756;51.982;5.648;2023-05-07T01:55:19;19.2;63.6
78463;SHT31;67756;51.982;5.648;2023-05-07T01:57:48;19.2;63.7
78463;SHT31;67756;51.982;5.648;2023-05-07T02:00:17;19.2;63.2
78463;SHT31;67756;51.982;5.648;2023-05-07T02:02:46;19.2;63.8
78463;SHT31;67756;51.982;5.648;2023-05-07T02:05:14;19.1;63.8
78463;SHT31;67756;51.982;5.648;2023-05-07T02:07:43;19.1;63.9
78463;SHT31;67756;51.982;5.648;2023-05-07T02:10:11;19.1;64.0
78463;SHT31;67756;51.982;5.648;2023-05-07T02:12:40;19.1;64.0
78463;SHT31;67756;51.982;5.648;2023-05-07T02:15:09;19.1;64.3
78463;SHT31;67756;51.982;5.648;2023-05-07T02:18:02;19.1;64.2
78463;SHT31;67756;51.982;5.648;2023-05-07T02:20:31;19.1;64.3
78463;SHT31;67756;51.982;5.648;2023-05-07T02:23:00;19.1;64.2
78463;SHT31;67756;51.982;5.648;2023-05-07T02:25:28;19.1;64.0
78463;SHT31;67756;51.982;5.648;2023-05-07T02:27:57;19.1;63.8
78463;SHT31;67756;51.982;5.648;2023-05-07T02:30:26;19.1;64.5
78463;SHT31;67756;51.982;5.648;2023-05-07T02:32:54;19.0;65.1
78463;SHT31;67756;51.982;5.648;2023-05-07T02:35:24;19.1;65.3
78463;SHT31;67756;51.982;5.648;2023-05-07T02:37:52;19.1;65.3
78463;SHT31;67756;51.982;5.648;2023-05-07T02:40:20;19.1;64.4
78463;SHT31;67756;51.982;5.648;2023-05-07T02:42:51;19.1;64.7
78463;SHT31;67756;51.982;5.648;2023-05-07T02:45:19;19.1;64.9
78463;SHT31;67756;51.982;5.648;2023-05-07T02:47:48;19.1;64.8
78463;SHT31;67756;51.982;5.648;2023-05-07T02:50:17;19.1;64.9
78463;SHT31;67756;51.982;5.648;2023-05-07T02:52:46;19.1;64.7
78463;SHT31;67756;51.982;5.648;2023-05-07T02:55:15;19.1;64.8
78463;SHT31;67756;51.982;5.648;2023-05-07T02:57:44;19.1;64.8
78463;SHT31;67756;51.982;5.648;2023-05-07T03:00:14;19.1;65.1
78463;SHT31;67756;51.982;5.648;2023-05-07T03:02:43;19.1;64.8
78463;SHT31;67756;51.982;5.648;2023-05-07T03:05:12;19.0;65.1
78463;SHT31;67756;51.982;5.648;2023-05-07T03:07:40;19.0;65.0
78463;SHT31;67756;51.982;5.648;2023-05-07T03:10:13;19.0;64.6
78463;SHT31;67756;51.982;5.648;2023-05-07T03:12:42;19.0;64.7
78463;SHT31;67756;51.982;5.648;2023-05-07T03:15:11;19.0;64.8
78463;SHT31;67756;51.982;5.648;2023-05-07T03:17:39;19.0;64.7
78463;SHT31;67756;51.982;5.648;2023-05-07T03:20:11;19.0;64.0
78463;SHT31;67756;51.982;5.648;2023-05-07T03:22:40;19.0;63.5
78463;SHT31;67756;51.982;5.648;2023-05-07T03:25:09;18.9;64.4
78463;SHT31;67756;51.982;5.648;2023-05-07T03:27:38;18.9;63.8
78463;SHT31;67756;51.982;5.648;2023-05-07T03:30:11;18.9;64.4
78463;SHT31;67756;51.982;5.648;2023-05-07T03:32:47;18.9;63.8
78463;SHT31;67756;51.982;5.648;2023-05-07T03:35:15;18.9;63.8
78463;SHT31;67756;51.982;5.648;2023-05-07T03:37:44;19.0;63.1
78463;SHT31;67756;51.982;5.648;2023-05-07T03:40:13;18.9;63.1
78463;SHT31;67756;51.982;5.648;2023-05-07T03:42:41;18.9;63.2
78463;SHT31;67756;51.982;5.648;2023-05-07T03:45:10;18.9;63.2
78463;SHT31;67756;51.982;5.648;2023-05-07T03:47:38;18.9;64.2
78463;SHT31;67756;51.982;5.648;2023-05-07T03:50:08;18.9;63.3
78463;SHT31;67756;51.982;5.648;2023-05-07T03:52:37;18.9;63.5
78463;SHT31;67756;51.982;5.648;2023-05-07T03:55:06;18.8;63.7
78463;SHT31;67756;51.982;5.648;2023-05-07T03:57:35;18.8;63.3
78463;SHT31;67756;51.982;5.648;2023-05-07T04:00:04;18.8;63.9
78463;SHT31;67756;51.982;5.648;2023-05-07T04:02:35;18.7;64.8
78463;SHT31;67756;51.982;5.648;2023-05-07T04:05:04;18.7;64.7
78463;SHT31;67756;51.982;5.648;2023-05-07T04:07:32;18.7;64.7
78463;SHT31;67756;51.982;5.648;2023-05-07T04:10:01;18.7;65.1
78463;SHT31;67756;51.982;5.648;2023-05-07T04:12:29;18.7;65.2
78463;SHT31;67756;51.982;5.648;2023-05-07T04:14:58;18.6;65.1
78463;SHT31;67756;51.982;5.648;2023-05-07T04:17:26;18.6;65.3
78463;SHT31;67756;51.982;5.648;2023-05-07T04:19:55;18.6;65.4
78463;SHT31;67756;51.982;5.648;2023-05-07T04:22:23;18.6;65.8
78463;SHT31;67756;51.982;5.648;2023-05-07T04:24:51;18.6;65.5
78463;SHT31;67756;51.982;5.648;2023-05-07T04:27:20;18.6;65.8
78463;SHT31;67756;51.982;5.648;2023-05-07T04:29:48;18.6;65.9
78463;SHT31;67756;51.982;5.648;2023-05-07T04:32:18;18.6;65.9
78463;SHT31;67756;51.982;5.648;2023-05-07T04:34:46;18.6;65.7
78463;SHT31;67756;51.982;5.648;2023-05-07T04:37:14;18.6;66.1
78463;SHT31;67756;51.982;5.648;2023-05-07T04:39:43;18.6;66.0
78463;SHT31;67756;51.982;5.648;2023-05-07T04:42:14;18.6;66.2
78463;SHT31;67756;51.982;5.648;2023-05-07T04:44:44;18.6;66.2
78463;SHT31;67756;51.982;5.648;2023-05-07T04:47:12;18.6;65.9
78463;SHT31;67756;51.982;5.648;2023-05-07T04:49:41;18.6;65.7
78463;SHT31;67756;51.982;5.648;2023-05-07T04:52:11;18.6;66.0
78463;SHT31;67756;51.982;5.648;2023-05-07T04:54:39;18.6;66.0
78463;SHT31;67756;51.982;5.648;2023-05-07T04:57:08;18.7;65.7
78463;SHT31;67756;51.982;5.648;2023-05-07T04:59:37;18.8;65.0
78463;SHT31;67756;51.982;5.648;2023-05-07T05:02:05;18.8;65.6
78463;SHT31;67756;51.982;5.648;2023-05-07T05:04:34;18.9;65.2
78463;SHT31;67756;51.982;5.648;2023-05-07T05:07:08;19.0;64.7
78463;SHT31;67756;51.982;5.648;2023-05-07T05:09:38;19.1;63.8
78463;SHT31;67756;51.982;5.648;2023-05-07T05:12:06;19.2;63.7
78463;SHT31;67756;51.982;5.648;2023-05-07T05:14:36;19.3;63.1
78463;SHT31;67756;51.982;5.648;2023-05-07T05:17:04;19.4;62.8
78463;SHT31;67756;51.982;5.648;2023-05-07T05:19:33;19.4;63.3
78463;SHT31;67756;51.982;5.648;2023-05-07T05:22:01;19.5;63.0
78463;SHT31;67756;51.982;5.648;2023-05-07T05:24:32;19.5;63.3
78463;SHT31;67756;51.982;5.648;2023-05-07T05:27:00;19.6;62.4
78463;SHT31;67756;51.982;5.648;2023-05-07T05:29:29;19.6;62.4
78463;SHT31;67756;51.982;5.648;2023-05-07T05:31:58;19.6;62.0
78463;SHT31;67756;51.982;5.648;2023-05-07T05:34:27;19.6;61.8
78463;SHT31;67756;51.982;5.648;2023-05-07T05:36:55;19.6;62.3
78463;SHT31;67756;51.982;5.648;2023-05-07T05:39:24;19.5;62.6
78463;SHT31;67756;51.982;5.648;2023-05-07T05:41:53;19.5;63.1
78463;SHT31;67756;51.982;5.648;2023-05-07T05:44:22;19.5;62.5
78463;SHT31;67756;51.982;5.648;2023-05-07T05:46:50;19.5;62.7
78463;SHT31;67756;51.982;5.648;2023-05-07T05:49:21;19.4;63.0
78463;SHT31;67756;51.982;5.648;2023-05-07T05:51:49;19.4;63.5
78463;SHT31;67756;51.982;5.648;2023-05-07T05:54:18;19.3;63.5
78463;SHT31;67756;51.982;5.648;2023-05-07T05:56:47;19.3;63.7
78463;SHT31;67756;51.982;5.648;2023-05-07T05:59:16;19.2;63.7
78463;SHT31;67756;51.982;5.648;2023-05-07T06:01:44;19.2;63.8
78463;SHT31;67756;51.982;5.648;2023-05-07T06:04:13;19.1;64.4
78463;SHT31;67756;51.982;5.648;2023-05-07T06:06:42;19.0;64.4
78463;SHT31;67756;51.982;5.648;2023-05-07T06:09:10;19.0;64.3
78463;SHT31;67756;51.982;5.648;2023-05-07T06:11:39;18.9;64.9
78463;SHT31;67756;51.982;5.648;2023-05-07T06:14:08;18.8;65.5
78463;SHT31;67756;51.982;5.648;2023-05-07T06:16:36;18.8;66.1
78463;SHT31;67756;51.982;5.648;2023-05-07T06:19:04;18.8;65.7
78463;SHT31;67756;51.982;5.648;2023-05-07T06:21:33;18.8;65.9
78463;SHT31;67756;51.982;5.648;2023-05-07T06:24:01;18.7;66.9
78463;SHT31;67756;51.982;5.648;2023-05-07T06:26:30;18.7;66.5
78463;SHT31;67756;51.982;5.648;2023-05-07T06:28:58;18.7;67.1
78463;SHT31;67756;51.982;5.648;2023-05-07T06:31:30;18.7;66.4
78463;SHT31;67756;51.982;5.648;2023-05-07T06:33:59;18.7;66.4
78463;SHT31;67756;51.982;5.648;2023-05-07T06:36:28;18.7;66.7
78463;SHT31;67756;51.982;5.648;2023-05-07T06:38:57;18.7;67.1
78463;SHT31;67756;51.982;5.648;2023-05-07T06:41:25;18.8;66.6
78463;SHT31;67756;51.982;5.648;2023-05-07T06:43:54;18.8;66.8
78463;SHT31;67756;51.982;5.648;2023-05-07T06:46:23;18.8;66.8
78463;SHT31;67756;51.982;5.648;2023-05-07T06:48:51;18.9;67.2
78463;SHT31;67756;51.982;5.648;2023-05-07T06:51:20;18.9;67.3
78463;SHT31;67756;51.982;5.648;2023-05-07T06:53:49;18.9;67.1
78463;SHT31;67756;51.982;5.648;2023-05-07T06:56:17;19.0;67.5
78463;SHT31;67756;51.982;5.648;2023-05-07T06:58:46;19.0;66.9
78463;SHT31;67756;51.982;5.648;2023-05-07T07:01:14;19.1;67.9
78463;SHT31;67756;51.982;5.648;2023-05-07T07:03:43;19.1;66.9
78463;SHT31;67756;51.982;5.648;2023-05-07T07:06:11;19.1;67.5
78463;SHT31;67756;51.982;5.648;2023-05-07T07:08:40;19.2;67.4
78463;SHT31;67756;51.982;5.648;2023-05-07T07:11:10;19.2;66.4
78463;SHT31;67756;51.982;5.648;2023-05-07T07:13:39;19.3;66.0
78463;SHT31;67756;51.982;5.648;2023-05-07T07:16:09;19.4;65.9
78463;SHT31;67756;51.982;5.648;2023-05-07T07:18:37;19.4;65.7
78463;SHT31;67756;51.982;5.648;2023-05-07T07:21:06;19.4;65.0
78463;SHT31;67756;51.982;5.648;2023-05-07T07:23:34;19.5;65.3
78463;SHT31;67756;51.982;5.648;2023-05-07T07:26:03;19.5;64.8
78463;SHT31;67756;51.982;5.648;2023-05-07T07:28:32;19.5;65.3
78463;SHT31;67756;51.982;5.648;2023-05-07T07:31:00;19.5;65.5
78463;SHT31;67756;51.982;5.648;2023-05-07T07:33:29;19.6;66.2
78463;SHT31;67756;51.982;5.648;2023-05-07T07:35:57;19.6;66.0
78463;SHT31;67756;51.982;5.648;2023-05-07T07:38:26;19.7;66.0
78463;SHT31;67756;51.982;5.648;2023-05-07T07:40:54;19.8;66.0
78463;SHT31;67756;51.982;5.648;2023-05-07T07:43:22;19.8;65.4
78463;SHT31;67756;51.982;5.648;2023-05-07T07:45:51;19.8;64.1
78463;SHT31;67756;51.982;5.648;2023-05-07T07:48:20;19.9;63.8
78463;SHT31;67756;51.982;5.648;2023-05-07T07:50:50;19.9;65.3
78463;SHT31;67756;51.982;5.648;2023-05-07T07:53:21;19.9;64.8
78463;SHT31;67756;51.982;5.648;2023-05-07T07:55:50;19.9;64.1
78463;SHT31;67756;51.982;5.648;2023-05-07T07:58:18;19.8;65.2
78463;SHT31;67756;51.982;5.648;2023-05-07T08:00:48;19.8;64.6
78463;SHT31;67756;51.982;5.648;2023-05-07T08:03:17;19.8;64.0
78463;SHT31;67756;51.982;5.648;2023-05-07T08:05:46;19.8;64.0
78463;SHT31;67756;51.982;5.648;2023-05-07T08:08:16;19.7;65.0
78463;SHT31;67756;51.982;5.648;2023-05-07T08:10:44;19.7;65.3
78463;SHT31;67756;51.982;5.648;2023-05-07T08:13:17;19.6;67.3
78463;SHT31;67756;51.982;5.648;2023-05-07T08:15:45;19.7;66.5
78463;SHT31;67756;51.982;5.648;2023-05-07T08:18:14;19.7;67.3
78463;SHT31;67756;51.982;5.648;2023-05-07T08:20:44;19.7;66.4
78463;SHT31;67756;51.982;5.648;2023-05-07T08:23:13;19.8;67.2
78463;SHT31;67756;51.982;5.648;2023-05-07T08:25:43;19.9;66.9
78463;SHT31;67756;51.982;5.648;2023-05-07T08:28:12;20.0;65.4
78463;SHT31;67756;51.982;5.648;2023-05-07T08:30:41;20.0;66.4
78463;SHT31;67756;51.982;5.648;2023-05-07T08:33:10;20.1;66.5
78463;SHT31;67756;51.982;5.648;2023-05-07T08:35:39;20.2;68.1
78463;SHT31;67756;51.982;5.648;2023-05-07T08:38:07;20.2;67.5
78463;SHT31;67756;51.982;5.648;2023-05-07T08:40:38;20.3;66.0
78463;SHT31;67756;51.982;5.648;2023-05-07T08:43:07;20.3;65.6
78463;SHT31;67756;51.982;5.648;2023-05-07T08:45:39;20.4;66.8
78463;SHT31;67756;51.982;5.648;2023-05-07T08:48:16;20.4;67.1
78463;SHT31;67756;51.982;5.648;2023-05-07T08:50:45;20.5;65.3
78463;SHT31;67756;51.982;5.648;2023-05-07T08:53:18;20.5;66.2
78463;SHT31;67756;51.982;5.648;2023-05-07T08:55:49;20.6;65.8
78463;SHT31;67756;51.982;5.648;2023-05-07T08:58:18;20.6;66.5
78463;SHT31;67756;51.982;5.648;2023-05-07T09:00:47;20.7;66.7
78463;SHT31;67756;51.982;5.648;2023-05-07T09:03:15;20.8;66.4
78463;SHT31;67756;51.982;5.648;2023-05-07T09:05:44;20.9;65.4
78463;SHT31;67756;51.982;5.648;2023-05-07T09:08:15;21.0;64.0
78463;SHT31;67756;51.982;5.648;2023-05-07T09:10:46;21.1;63.4
78463;SHT31;67756;51.982;5.648;2023-05-07T09:13:16;21.1;62.6
78463;SHT31;67756;51.982;5.648;2023-05-07T09:15:45;21.2;62.7
78463;SHT31;67756;51.982;5.648;2023-05-07T09:18:13;21.2;62.3
78463;SHT31;67756;51.982;5.648;2023-05-07T09:20:42;21.3;61.7
78463;SHT31;67756;51.982;5.648;2023-05-07T09:23:12;21.4;63.3
78463;SHT31;67756;51.982;5.648;2023-05-07T09:25:43;21.5;62.0
78463;SHT31;67756;51.982;5.648;2023-05-07T09:28:14;21.6;62.1
78463;SHT31;67756;51.982;5.648;2023-05-07T09:30:42;21.7;61.4
78463;SHT31;67756;51.982;5.648;2023-05-07T09:33:11;21.8;62.8
78463;SHT31;67756;51.982;5.648;2023-05-07T09:35:39;21.9;60.5
78463;SHT31;67756;51.982;5.648;2023-05-07T09:38:10;22.0;60.8
78463;SHT31;67756;51.982;5.648;2023-05-07T09:40:38;22.0;59.9
78463;SHT31;67756;51.982;5.648;2023-05-07T09:43:11;22.1;59.1
78463;SHT31;67756;51.982;5.648;2023-05-07T09:45:41;22.1;58.4
78463;SHT31;67756;51.982;5.648;2023-05-07T09:48:10;22.1;58.9
78463;SHT31;67756;51.982;5.648;2023-05-07T09:50:48;22.1;58.7
78463;SHT31;67756;51.982;5.648;2023-05-07T09:53:17;22.2;58.5
78463;SHT31;67756;51.982;5.648;2023-05-07T09:55:47;22.2;55.8
78463;SHT31;67756;51.982;5.648;2023-05-07T09:58:20;22.3;57.5
78463;SHT31;67756;51.982;5.648;2023-05-07T10:00:50;22.4;55.1
78463;SHT31;67756;51.982;5.648;2023-05-07T10:03:22;22.5;54.9
78463;SHT31;67756;51.982;5.648;2023-05-07T10:05:55;22.5;56.2
78463;SHT31;67756;51.982;5.648;2023-05-07T10:08:24;22.6;55.2
78463;SHT31;67756;51.982;5.648;2023-05-07T10:10:53;22.6;55.7
78463;SHT31;67756;51.982;5.648;2023-05-07T10:13:24;22.6;54.6
78463;SHT31;67756;51.982;5.648;2023-05-07T10:15:52;22.6;55.5
78463;SHT31;67756;51.982;5.648;2023-05-07T10:18:23;22.6;57.4
78463;SHT31;67756;51.982;5.648;2023-05-07T10:21:01;22.6;57.2
78463;SHT31;67756;51.982;5.648;2023-05-07T10:23:31;22.7;54.9
78463;SHT31;67756;51.982;5.648;2023-05-07T10:26:03;22.7;55.8
78463;SHT31;67756;51.982;5.648;2023-05-07T10:28:36;22.8;54.3
78463;SHT31;67756;51.982;5.648;2023-05-07T10:31:22;22.8;54.0
78463;SHT31;67756;51.982;5.648;2023-05-07T10:33:55;22.8;56.6
78463;SHT31;67756;51.982;5.648;2023-05-07T10:36:25;22.8;54.1
78463;SHT31;67756;51.982;5.648;2023-05-07T10:38:55;22.9;54.6
78463;SHT31;67756;51.982;5.648;2023-05-07T10:41:25;22.9;53.9
78463;SHT31;67756;51.982;5.648;2023-05-07T10:43:53;23.0;55.4
78463;SHT31;67756;51.982;5.648;2023-05-07T10:46:23;23.0;54.8
78463;SHT31;67756;51.982;5.648;2023-05-07T10:49:13;23.2;54.4
78463;SHT31;67756;51.982;5.648;2023-05-07T10:51:44;23.3;53.4
78463;SHT31;67756;51.982;5.648;2023-05-07T10:54:22;23.5;55.4
78463;SHT31;67756;51.982;5.648;2023-05-07T10:56:52;23.7;52.5
78463;SHT31;67756;51.982;5.648;2023-05-07T10:59:37;23.9;50.3
78463;SHT31;67756;51.982;5.648;2023-05-07T11:02:10;24.0;50.7
78463;SHT31;67756;51.982;5.648;2023-05-07T11:04:42;24.0;51.3
78463;SHT31;67756;51.982;5.648;2023-05-07T11:07:27;24.0;50.9
78463;SHT31;67756;51.982;5.648;2023-05-07T11:09:57;24.0;50.7
78463;SHT31;67756;51.982;5.648;2023-05-07T11:12:52;24.0;51.9
78463;SHT31;67756;51.982;5.648;2023-05-07T11:15:43;24.1;50.6
78463;SHT31;67756;51.982;5.648;2023-05-07T11:18:15;24.1;51.0
78463;SHT31;67756;51.982;5.648;2023-05-07T11:20:55;24.1;50.5
78463;SHT31;67756;51.982;5.648;2023-05-07T11:28:06;24.1;50.3
78463;SHT31;67756;51.982;5.648;2023-05-07T11:30:36;24.1;50.7
78463;SHT31;67756;51.982;5.648;2023-05-07T11:33:07;24.1;50.5
78463;SHT31;67756;51.982;5.648;2023-05-07T11:35:36;24.1;49.7
78463;SHT31;67756;51.982;5.648;2023-05-07T11:38:05;24.1;50.1
78463;SHT31;67756;51.982;5.648;2023-05-07T11:40:35;24.2;50.9
78463;SHT31;67756;51.982;5.648;2023-05-07T11:43:12;24.2;51.9
78463;SHT31;67756;51.982;5.648;2023-05-07T11:45:40;24.2;50.1
78463;SHT31;67756;51.982;5.648;2023-05-07T11:48:09;24.2;49.8
78463;SHT31;67756;51.982;5.648;2023-05-07T11:50:51;24.2;48.0
78463;SHT31;67756;51.982;5.648;2023-05-07T11:53:24;24.2;48.3
78463;SHT31;67756;51.982;5.648;2023-05-07T11:55:55;24.2;48.2
78463;SHT31;67756;51.982;5.648;2023-05-07T11:58:25;24.2;48.8
78463;SHT31;67756;51.982;5.648;2023-05-07T12:00:54;24.2;49.2
78463;SHT31;67756;51.982;5.648;2023-05-07T12:03:24;24.1;49.9
78463;SHT31;67756;51.982;5.648;2023-05-07T12:05:55;24.1;50.2
78463;SHT31;67756;51.982;5.648;2023-05-07T12:08:23;24.0;52.3
78463;SHT31;67756;51.982;5.648;2023-05-07T12:10:52;24.0;52.0
78463;SHT31;67756;51.982;5.648;2023-05-07T12:13:23;24.0;52.3
78463;SHT31;67756;51.982;5.648;2023-05-07T12:15:53;24.0;51.6
78463;SHT31;67756;51.982;5.648;2023-05-07T12:18:22;24.1;50.8
78463;SHT31;67756;51.982;5.648;2023-05-07T12:20:51;24.1;50.9
78463;SHT31;67756;51.982;5.648;2023-05-07T12:23:21;24.1;51.2
78463;SHT31;67756;51.982;5.648;2023-05-07T12:25:50;24.2;51.4
78463;SHT31;67756;51.982;5.648;2023-05-07T12:28:19;24.3;52.9
78463;SHT31;67756;51.982;5.648;2023-05-07T12:30:50;24.5;50.5
78463;SHT31;67756;51.982;5.648;2023-05-07T12:33:24;24.9;48.0
78463;SHT31;67756;51.982;5.648;2023-05-07T12:35:55;25.6;47.4
78463;SHT31;67756;51.982;5.648;2023-05-07T12:38:24;26.1;44.1
78463;SHT31;67756;51.982;5.648;2023-05-07T12:40:54;26.5;44.7
78463;SHT31;67756;51.982;5.648;2023-05-07T12:43:25;26.7;44.1
78463;SHT31;67756;51.982;5.648;2023-05-07T12:45:56;26.9;42.4
78463;SHT31;67756;51.982;5.648;2023-05-07T12:48:25;27.0;42.2
78463;SHT31;67756;51.982;5.648;2023-05-07T12:50:56;27.0;41.6
78463;SHT31;67756;51.982;5.648;2023-05-07T12:53:26;27.0;42.6
78463;SHT31;67756;51.982;5.648;2023-05-07T12:55:57;27.0;43.3
78463;SHT31;67756;51.982;5.648;2023-05-07T12:58:28;27.0;43.0
78463;SHT31;67756;51.982;5.648;2023-05-07T13:00:59;27.0;43.4
78463;SHT31;67756;51.982;5.648;2023-05-07T13:03:31;27.0;44.6
78463;SHT31;67756;51.982;5.648;2023-05-07T13:06:02;27.0;42.8
78463;SHT31;67756;51.982;5.648;2023-05-07T13:08:33;27.0;42.0
78463;SHT31;67756;51.982;5.648;2023-05-07T13:11:03;26.9;41.1
78463;SHT31;67756;51.982;5.648;2023-05-07T13:13:33;26.8;42.5
78463;SHT31;67756;51.982;5.648;2023-05-07T13:16:02;26.7;42.0
78463;SHT31;67756;51.982;5.648;2023-05-07T13:18:32;26.6;42.7
78463;SHT31;67756;51.982;5.648;2023-05-07T13:21:01;26.5;43.8
78463;SHT31;67756;51.982;5.648;2023-05-07T13:23:30;26.4;44.5
78463;SHT31;67756;51.982;5.648;2023-05-07T13:25:59;26.4;42.5
78463;SHT31;67756;51.982;5.648;2023-05-07T13:28:27;26.3;42.1
78463;SHT31;67756;51.982;5.648;2023-05-07T13:30:56;26.3;43.2
78463;SHT31;67756;51.982;5.648;2023-05-07T13:33:26;26.3;44.4
78463;SHT31;67756;51.982;5.648;2023-05-07T13:35:55;26.4;44.0
78463;SHT31;67756;51.982;5.648;2023-05-07T13:38:26;26.5;44.4
78463;SHT31;67756;51.982;5.648;2023-05-07T13:40:55;26.5;44.1
78463;SHT31;67756;51.982;5.648;2023-05-07T13:43:24;26.6;43.7
78463;SHT31;67756;51.982;5.648;2023-05-07T13:45:53;26.7;41.6
78463;SHT31;67756;51.982;5.648;2023-05-07T13:48:21;26.8;41.3
78463;SHT31;67756;51.982;5.648;2023-05-07T13:50:50;26.9;43.2
78463;SHT31;67756;51.982;5.648;2023-05-07T13:53:18;26.9;41.3
78463;SHT31;67756;51.982;5.648;2023-05-07T13:55:47;26.9;41.7
78463;SHT31;67756;51.982;5.648;2023-05-07T13:58:15;26.9;40.1
78463;SHT31;67756;51.982;5.648;2023-05-07T14:00:44;26.9;40.3
78463;SHT31;67756;51.982;5.648;2023-05-07T14:03:14;26.8;39.8
78463;SHT31;67756;51.982;5.648;2023-05-07T14:05:43;26.8;42.3
78463;SHT31;67756;51.982;5.648;2023-05-07T14:08:12;26.8;43.6
78463;SHT31;67756;51.982;5.648;2023-05-07T14:10:40;26.9;42.3
78463;SHT31;67756;51.982;5.648;2023-05-07T14:13:09;26.9;42.0
78463;SHT31;67756;51.982;5.648;2023-05-07T14:15:37;26.9;42.5
78463;SHT31;67756;51.982;5.648;2023-05-07T14:18:06;26.8;42.5
78463;SHT31;67756;51.982;5.648;2023-05-07T14:20:35;26.8;42.2
78463;SHT31;67756;51.982;5.648;2023-05-07T14:23:04;26.7;42.7
78463;SHT31;67756;51.982;5.648;2023-05-07T14:25:34;26.7;43.6
78463;SHT31;67756;51.982;5.648;2023-05-07T14:28:03;26.6;43.7
78463;SHT31;67756;51.982;5.648;2023-05-07T14:30:31;26.5;44.0
78463;SHT31;67756;51.982;5.648;2023-05-07T14:33:00;26.4;44.5
78463;SHT31;67756;51.982;5.648;2023-05-07T14:35:28;26.4;44.1
78463;SHT31;67756;51.982;5.648;2023-05-07T14:37:56;26.3;44.7
78463;SHT31;67756;51.982;5.648;2023-05-07T14:40:25;26.3;44.6
78463;SHT31;67756;51.982;5.648;2023-05-07T14:42:53;26.2;44.7
78463;SHT31;67756;51.982;5.648;2023-05-07T14:45:23;26.2;44.6
78463;SHT31;67756;51.982;5.648;2023-05-07T14:47:51;26.1;45.0
78463;SHT31;67756;51.982;5.648;2023-05-07T14:50:20;26.1;46.0
78463;SHT31;67756;51.982;5.648;2023-05-07T14:52:49;26.1;45.5
78463;SHT31;67756;51.982;5.648;2023-05-07T14:55:17;26.1;45.7
78463;SHT31;67756;51.982;5.648;2023-05-07T14:57:46;26.1;45.2
78463;SHT31;67756;51.982;5.648;2023-05-07T15:00:15;26.1;44.7
78463;SHT31;67756;51.982;5.648;2023-05-07T15:02:45;26.1;44.5
78463;SHT31;67756;51.982;5.648;2023-05-07T15:05:14;26.0;44.4
78463;SHT31;67756;51.982;5.648;2023-05-07T15:07:44;25.9;44.9
78463;SHT31;67756;51.982;5.648;2023-05-07T15:10:13;25.8;46.4
78463;SHT31;67756;51.982;5.648;2023-05-07T15:12:42;25.8;45.3
78463;SHT31;67756;51.982;5.648;2023-05-07T15:15:12;25.8;45.1
78463;SHT31;67756;51.982;5.648;2023-05-07T15:17:41;25.8;45.5
78463;SHT31;67756;51.982;5.648;2023-05-07T15:20:10;25.8;45.0
78463;SHT31;67756;51.982;5.648;2023-05-07T15:22:40;25.6;45.5
78463;SHT31;67756;51.982;5.648;2023-05-07T15:25:09;25.4;45.9
78463;SHT31;67756;51.982;5.648;2023-05-07T15:27:38;25.2;44.3
78463;SHT31;67756;51.982;5.648;2023-05-07T15:30:07;24.9;44.0
78463;SHT31;67756;51.982;5.648;2023-05-07T15:32:37;24.5;44.6
78463;SHT31;67756;51.982;5.648;2023-05-07T15:35:07;24.1;45.6
78463;SHT31;67756;51.982;5.648;2023-05-07T15:37:36;23.7;46.7
78463;SHT31;67756;51.982;5.648;2023-05-07T15:40:05;23.4;47.8
78463;SHT31;67756;51.982;5.648;2023-05-07T15:42:37;23.1;48.3
78463;SHT31;67756;51.982;5.648;2023-05-07T15:45:06;22.8;49.3
78463;SHT31;67756;51.982;5.648;2023-05-07T15:47:36;22.5;51.5
78463;SHT31;67756;51.982;5.648;2023-05-07T15:50:05;22.3;52.8
78463;SHT31;67756;51.982;5.648;2023-05-07T15:52:33;22.1;55.6
78463;SHT31;67756;51.982;5.648;2023-05-07T15:55:02;21.9;57.0
78463;SHT31;67756;51.982;5.648;2023-05-07T15:57:31;21.7;60.6
78463;SHT31;67756;51.982;5.648;2023-05-07T16:00:00;21.6;63.5
78463;SHT31;67756;51.982;5.648;2023-05-07T16:02:34;21.3;62.8
78463;SHT31;67756;51.982;5.648;2023-05-07T16:05:04;21.1;64.3
78463;SHT31;67756;51.982;5.648;2023-05-07T16:07:33;20.9;64.2
78463;SHT31;67756;51.982;5.648;2023-05-07T16:10:03;20.7;67.9
78463;SHT31;67756;51.982;5.648;2023-05-07T16:12:31;20.6;67.2
78463;SHT31;67756;51.982;5.648;2023-05-07T16:15:00;20.5;66.1
78463;SHT31;67756;51.982;5.648;2023-05-07T16:17:28;20.4;67.0
78463;SHT31;67756;51.982;5.648;2023-05-07T16:19:57;20.4;68.9
78463;SHT31;67756;51.982;5.648;2023-05-07T16:22:27;20.3;69.0